ADDS METAR Data

Data at: 0747 UTC 24 Oct 2017

METAR for:KSFZ (Pawtucket/NC State A, RI, US)
Text:KSFZ 240656Z AUTO 16008KT 110V200 10SM BKN011 OVC042 18/17 A3008 RMK AO2 SLP131 T01830167
Temperature: 18.3°C ( 65°F)
Dewpoint: 16.7°C ( 62°F) [RH = 90%]
Pressure (altimeter):30.08 inches Hg (1018.7 mb) [Sea level pressure: 1013.1 mb]
Winds:from the SSE (160 degrees) at 9 MPH (8 knots; 4.1 m/s)
Visibility:10 or more sm (16+ km)
Ceiling:1100 feet AGL
Clouds: broken clouds at 1100 feet AGL, overcast cloud deck at 4200 feet AGL
QC Flag:automated observation with no human augmentation